createdAt,value
2019-04-22T00:01:57.875Z,5.30
2019-04-22T00:04:42.150Z,5.40
2019-04-22T00:07:26.791Z,5.50
2019-04-22T00:09:59.471Z,5.50
2019-04-22T00:12:27.164Z,5.40
2019-04-22T00:15:02.270Z,5.40
2019-04-22T00:17:42.740Z,5.30
2019-04-22T00:20:06.082Z,5.60
2019-04-22T00:22:32.138Z,5.60
2019-04-22T00:25:11.865Z,5.40
2019-04-22T00:27:40.592Z,5.30
2019-04-22T00:30:18.154Z,5.10
2019-04-22T00:32:58.974Z,5.10
2019-04-22T00:35:29.282Z,5.10
2019-04-22T00:38:08.932Z,5.00
2019-04-22T00:43:06.790Z,4.90
2019-04-22T00:48:16.422Z,4.80
2019-04-22T00:50:51.881Z,4.70
2019-04-22T00:53:25.291Z,4.70
2019-04-22T00:58:41.174Z,4.60
2019-04-22T01:04:05.594Z,4.50
2019-04-22T01:06:20.415Z,4.50
2019-04-22T01:13:59.366Z,4.40
2019-04-22T01:16:29.666Z,4.40
2019-04-22T01:19:05.329Z,4.30
2019-04-22T01:21:36.594Z,4.30
2019-04-22T01:24:05.982Z,4.20
2019-04-22T01:26:29.917Z,4.10
2019-04-22T01:29:00.819Z,4.10
2019-04-22T01:31:23.938Z,4.00
2019-04-22T01:34:08.204Z,4.00
2019-04-22T01:36:45.699Z,4.10
2019-04-22T01:39:21.290Z,4.10
2019-04-22T01:44:31.246Z,4.00
2019-04-22T01:46:57.834Z,4.00
2019-04-22T01:49:33.920Z,4.00
2019-04-22T01:52:17.121Z,4.00
2019-04-22T01:54:44.459Z,3.90
2019-04-22T01:57:04.969Z,3.90
2019-04-22T01:59:32.978Z,3.80
2019-04-22T02:02:09.897Z,3.80
2019-04-22T02:04:49.268Z,3.80
2019-04-22T02:07:16.506Z,3.90
2019-04-22T02:09:51.943Z,3.90
2019-04-22T02:12:19.903Z,3.90
2019-04-22T02:14:50.428Z,3.80
2019-04-22T02:17:26.485Z,3.80
2019-04-22T02:19:59.104Z,3.70
2019-04-22T02:22:42.849Z,3.60
2019-04-22T02:25:06.989Z,3.50
2019-04-22T02:30:05.407Z,3.60
2019-04-22T02:32:52.639Z,3.50
2019-04-22T02:35:38.353Z,3.50
2019-04-22T02:38:07.481Z,3.60
2019-04-22T02:40:17.308Z,3.60
2019-04-22T02:42:51.749Z,3.70
2019-04-22T02:45:28.705Z,3.60
2019-04-22T02:47:58.568Z,3.70
2019-04-22T02:50:46.170Z,3.70
2019-04-22T02:53:03.711Z,3.80
2019-04-22T02:55:34.907Z,3.90
2019-04-22T02:58:06.177Z,4.00
2019-04-22T03:00:45.876Z,4.50
2019-04-22T03:03:25.489Z,5.20
2019-04-22T03:05:56.645Z,6.00
2019-04-22T03:08:25.344Z,6.40
2019-04-22T03:18:44.072Z,6.90
2019-04-22T03:21:03.603Z,7.20
2019-04-22T03:23:45.401Z,7.30
2019-04-22T03:26:27.468Z,7.40
2019-04-22T03:28:49.834Z,7.70
2019-04-22T03:31:59.019Z,8.60
2019-04-22T03:39:27.710Z,10.70
2019-04-22T03:41:57.329Z,11.40
2019-04-22T03:46:53.401Z,12.90
2019-04-22T03:49:29.159Z,12.30
2019-04-22T03:51:56.831Z,12.80
2019-04-22T03:54:29.598Z,13.40
2019-04-22T03:57:32.275Z,14.90
2019-04-22T04:04:36.009Z,15.10
2019-04-22T04:07:14.987Z,14.70
2019-04-22T04:14:50.859Z,15.80
2019-04-22T04:17:09.204Z,16.50
2019-04-22T04:20:03.268Z,16.50
2019-04-22T04:22:33.875Z,16.80
2019-04-22T04:27:42.770Z,17.70
2019-04-22T04:32:41.644Z,15.00
2019-04-22T04:37:52.434Z,15.10
2019-04-22T04:40:11.689Z,15.40
2019-04-22T05:01:44.901Z,14.80
2019-04-22T05:04:25.520Z,14.50
2019-04-22T05:06:59.617Z,15.20
2019-04-22T05:09:40.856Z,15.40
2019-04-22T05:12:19.528Z,15.10
2019-04-22T05:17:07.695Z,16.60
2019-04-22T05:19:57.439Z,17.80
2019-04-22T05:22:13.392Z,17.40
2019-04-22T05:25:06.326Z,16.70
2019-04-22T05:27:28.139Z,17.00
2019-04-22T05:30:07.551Z,17.90
2019-04-22T05:32:24.644Z,17.50
2019-04-22T05:34:59.750Z,17.60
2019-04-22T05:37:35.648Z,16.80
2019-04-22T05:40:08.791Z,17.10
2019-04-22T05:42:30.980Z,18.70
2019-04-22T05:47:46.357Z,19.00
2019-04-22T05:50:13.182Z,18.80
2019-04-22T05:52:51.317Z,19.50
2019-04-22T05:55:30.455Z,19.40
2019-04-22T05:57:59.674Z,19.40
2019-04-22T06:03:21.010Z,18.40
2019-04-22T06:05:47.305Z,19.50
2019-04-22T06:08:33.670Z,18.50
2019-04-22T06:11:04.392Z,19.00
2019-04-22T06:13:27.641Z,18.40
2019-04-22T06:16:07.326Z,18.30
2019-04-22T06:18:33.442Z,18.80
2019-04-22T06:21:12.165Z,18.80
2019-04-22T06:26:26.766Z,18.90
2019-04-22T06:28:48.433Z,19.60
2019-04-22T06:31:20.969Z,20.40
2019-04-22T06:33:58.180Z,21.40
2019-04-22T06:36:24.457Z,21.20
2019-04-22T06:39:05.153Z,20.00
2019-04-22T06:41:34.877Z,19.00
2019-04-22T06:44:16.184Z,18.00
2019-04-22T06:46:41.877Z,17.50
2019-04-22T06:49:19.411Z,17.10
2019-04-22T06:51:45.333Z,16.70
2019-04-22T06:54:14.058Z,16.10
2019-04-22T06:56:49.148Z,15.50
2019-04-22T06:59:21.646Z,15.30
2019-04-22T07:04:30.212Z,14.70
2019-04-22T07:07:02.229Z,14.90
2019-04-22T07:12:09.474Z,14.70
2019-04-22T07:14:47.200Z,14.70
2019-04-22T07:17:14.926Z,14.70
2019-04-22T07:19:43.676Z,14.60
2019-04-22T07:24:53.892Z,14.40
2019-04-22T07:27:27.832Z,14.60
2019-04-22T07:30:09.302Z,14.70
2019-04-22T07:33:01.124Z,14.80
2019-04-22T07:40:11.854Z,14.40
2019-04-22T07:42:45.151Z,14.60
2019-04-22T07:45:15.522Z,14.30
2019-04-22T07:47:58.991Z,14.20
2019-04-22T07:50:37.434Z,14.30
2019-04-22T07:52:51.435Z,14.40
2019-04-22T07:55:29.501Z,14.50
2019-04-22T07:57:58.270Z,14.40
2019-04-22T08:00:39.154Z,14.60
2019-04-22T08:03:19.482Z,14.60
2019-04-22T08:05:51.946Z,14.50
2019-04-22T08:10:57.924Z,14.80
2019-04-22T08:13:25.203Z,14.90
2019-04-22T08:15:58.179Z,15.10
2019-04-22T08:18:36.733Z,15.20
2019-04-22T08:21:07.013Z,15.20
2019-04-22T08:26:05.008Z,15.20
2019-04-22T08:28:45.926Z,15.30
2019-04-22T08:31:14.500Z,15.10
2019-04-22T08:33:47.097Z,15.10
2019-04-22T08:36:26.013Z,15.40
2019-04-22T08:38:54.245Z,15.30
2019-04-22T08:46:38.614Z,15.40
2019-04-22T08:49:04.540Z,15.50
2019-04-22T08:51:32.570Z,15.80
2019-04-22T08:54:12.155Z,15.80
2019-04-22T09:01:56.824Z,15.40
2019-04-22T09:04:23.237Z,15.70
2019-04-22T09:07:10.458Z,15.70
2019-04-22T09:09:42.441Z,15.90
2019-04-22T09:12:11.318Z,15.80
2019-04-22T09:14:42.186Z,15.90
2019-04-22T09:17:17.304Z,16.10
2019-04-22T09:19:40.510Z,16.50
2019-04-22T09:22:26.276Z,16.80
2019-04-22T09:24:48.942Z,16.70
2019-04-22T09:27:24.862Z,16.40
2019-04-22T09:30:15.100Z,16.30
2019-04-22T09:32:31.771Z,16.10
2019-04-22T09:34:58.956Z,16.30
2019-04-22T09:37:34.555Z,16.20
2019-04-22T09:40:13.861Z,16.30
2019-04-22T09:42:39.636Z,16.30
2019-04-22T09:45:21.786Z,16.50
2019-04-22T09:50:22.355Z,16.10
2019-04-22T09:52:51.581Z,16.00
2019-04-22T09:55:17.964Z,15.90
2019-04-22T09:57:53.037Z,15.70
2019-04-22T10:00:22.968Z,15.80
2019-04-22T10:05:29.419Z,16.40
2019-04-22T10:08:17.814Z,16.40
2019-04-22T10:10:42.867Z,16.50
2019-04-22T10:13:18.945Z,16.30
2019-04-22T10:15:46.877Z,16.40
2019-04-22T10:18:20.344Z,16.50
2019-04-22T10:20:54.131Z,16.50
2019-04-22T10:23:24.970Z,16.60
2019-04-22T10:26:00.791Z,16.60
2019-04-22T10:28:38.458Z,16.60
2019-04-22T10:31:14.938Z,16.60
2019-04-22T10:33:38.151Z,16.60
2019-04-22T10:35:49.656Z,16.70
2019-04-22T10:38:20.412Z,16.80
2019-04-22T10:40:52.462Z,16.90
2019-04-22T10:43:23.268Z,16.70
2019-04-22T10:45:54.496Z,16.80
2019-04-22T10:48:26.185Z,16.80
2019-04-22T10:50:56.886Z,16.80
2019-04-22T10:53:27.413Z,16.70
2019-04-22T10:55:58.853Z,16.70
2019-04-22T10:58:30.713Z,16.60
2019-04-22T11:01:01.465Z,16.70
2019-04-22T11:03:33.236Z,16.80
2019-04-22T11:06:05.519Z,16.70
2019-04-22T11:08:43.489Z,16.90
2019-04-22T11:11:21.428Z,16.90
2019-04-22T11:13:41.875Z,16.80
2019-04-22T11:16:13.815Z,16.70
2019-04-22T11:18:45.439Z,16.80
2019-04-22T11:21:16.145Z,16.80
2019-04-22T11:23:48.393Z,17.00
2019-04-22T11:26:34.621Z,17.00
2019-04-22T11:28:55.886Z,17.00
2019-04-22T11:31:28.275Z,17.10
2019-04-22T11:33:58.620Z,17.40
2019-04-22T11:36:30.798Z,17.30
2019-04-22T11:39:05.403Z,17.20
2019-04-22T11:41:33.905Z,17.20
2019-04-22T11:44:05.461Z,17.40
2019-04-22T11:46:36.034Z,17.50
2019-04-22T11:49:07.830Z,17.70
2019-04-22T11:51:40.239Z,17.70
2019-04-22T11:54:12.272Z,17.80
2019-04-22T11:56:49.493Z,17.80
2019-04-22T11:59:29.028Z,17.90
2019-04-22T12:02:02.734Z,17.90
2019-04-22T12:04:36.001Z,17.70
2019-04-22T12:07:08.800Z,17.60
2019-04-22T12:09:41.899Z,17.40
2019-04-22T12:12:13.932Z,17.00
2019-04-22T12:14:45.865Z,16.70
2019-04-22T12:17:17.995Z,16.60
2019-04-22T12:19:50.358Z,16.80
2019-04-22T12:22:29.278Z,17.00
2019-04-22T12:25:12.442Z,17.00
2019-04-22T12:27:43.179Z,17.20
2019-04-22T12:30:16.751Z,17.20
2019-04-22T12:32:48.563Z,17.30
2019-04-22T12:35:19.788Z,17.30
2019-04-22T12:37:55.684Z,17.40
2019-04-22T12:40:33.777Z,17.50
2019-04-22T12:42:55.447Z,17.50
2019-04-22T12:45:36.413Z,17.60
2019-04-22T12:48:08.706Z,17.40
2019-04-22T12:50:43.451Z,17.40
2019-04-22T12:53:14.950Z,17.60
2019-04-22T12:55:43.895Z,17.70
2019-04-22T12:58:15.971Z,17.60
2019-04-22T13:00:46.414Z,17.60
2019-04-22T13:03:18.454Z,17.40
2019-04-22T13:05:51.434Z,17.20
2019-04-22T13:08:27.589Z,17.30
2019-04-22T13:11:06.828Z,17.30
2019-04-22T13:13:34.818Z,17.20
2019-04-22T13:16:08.984Z,17.20
2019-04-22T13:19:00.136Z,17.40
2019-04-22T13:21:31.204Z,17.50
2019-04-22T13:24:06.969Z,17.50
2019-04-22T13:26:38.099Z,17.40
2019-04-22T13:29:10.717Z,17.30
2019-04-22T13:31:42.526Z,17.40
2019-04-22T13:34:21.400Z,17.30
2019-04-22T13:36:46.723Z,17.30
2019-04-22T13:39:18.699Z,17.50
2019-04-22T13:41:54.535Z,17.50
2019-04-22T13:44:22.972Z,17.50
2019-04-22T13:47:11.618Z,17.40
2019-04-22T13:50:01.104Z,17.50
2019-04-22T13:54:53.237Z,17.40
2019-04-22T13:57:19.709Z,17.50
2019-04-22T13:59:40.964Z,17.60
2019-04-22T14:02:26.691Z,17.60
2019-04-22T14:04:59.172Z,17.60
2019-04-22T14:07:30.746Z,17.60
2019-04-22T14:10:02.627Z,17.50
2019-04-22T14:12:34.633Z,17.50
2019-04-22T14:15:07.715Z,17.40
2019-04-22T14:17:38.949Z,17.50
2019-04-22T14:20:10.925Z,17.50
2019-04-22T14:22:41.600Z,17.50
2019-04-22T14:25:14.512Z,17.60
2019-04-22T14:27:51.379Z,17.70
2019-04-22T14:30:20.785Z,17.60
2019-04-22T14:32:54.082Z,17.60
2019-04-22T14:35:25.285Z,17.70
2019-04-22T14:37:56.445Z,17.70
2019-04-22T14:40:28.723Z,17.60
2019-04-22T14:43:23.115Z,17.60
2019-04-22T14:46:05.527Z,17.50
2019-04-22T14:48:27.344Z,17.50
2019-04-22T14:50:56.272Z,17.40
2019-04-22T14:53:26.281Z,17.20
2019-04-22T14:55:40.342Z,17.10
2019-04-22T14:58:12.957Z,17.10
2019-04-22T15:00:45.744Z,17.10
2019-04-22T15:03:17.519Z,17.00
2019-04-22T15:05:48.304Z,16.90
2019-04-22T15:08:19.211Z,16.90
2019-04-22T15:10:51.647Z,16.90
2019-04-22T15:13:23.318Z,16.90
2019-04-22T15:15:58.645Z,16.90
2019-04-22T15:18:31.996Z,16.90
2019-04-22T15:21:04.960Z,16.90
2019-04-22T15:23:35.519Z,16.90
2019-04-22T15:26:06.519Z,16.90
2019-04-22T15:28:37.513Z,16.90
2019-04-22T15:31:09.130Z,16.90
2019-04-22T15:33:41.530Z,16.80
2019-04-22T15:36:12.167Z,16.80
2019-04-22T15:38:42.602Z,16.80
2019-04-22T15:41:12.941Z,16.80
2019-04-22T15:43:43.670Z,16.80
2019-04-22T15:46:14.282Z,16.80
2019-04-22T15:48:46.203Z,16.80
2019-04-22T15:51:18.549Z,16.80
2019-04-22T15:53:57.923Z,16.80
2019-04-22T15:56:28.661Z,16.80
2019-04-22T15:58:59.743Z,16.70
2019-04-22T16:01:34.006Z,16.70
2019-04-22T16:04:02.822Z,16.60
2019-04-22T16:06:34.790Z,16.60
2019-04-22T16:09:13.226Z,16.50
2019-04-22T16:11:43.892Z,16.40
2019-04-22T16:14:23.955Z,16.30
2019-04-22T16:16:48.435Z,16.30
2019-04-22T16:19:19.131Z,16.10
2019-04-22T16:21:56.675Z,16.00
2019-04-22T16:24:40.459Z,15.90
2019-04-22T16:27:14.139Z,15.80
2019-04-22T16:29:47.385Z,15.70
2019-04-22T16:32:17.285Z,15.60
2019-04-22T16:34:48.094Z,15.50
2019-04-22T16:37:18.876Z,15.40
2019-04-22T16:39:51.910Z,15.30
2019-04-22T16:42:30.173Z,15.20
2019-04-22T16:44:55.366Z,15.10
2019-04-22T16:47:25.978Z,14.90
2019-04-22T16:49:57.449Z,14.70
2019-04-22T16:52:28.237Z,14.60
2019-04-22T16:54:59.051Z,14.40
2019-04-22T16:57:30.033Z,14.20
2019-04-22T17:00:00.754Z,14.10
2019-04-22T17:02:50.655Z,13.90
2019-04-22T17:05:38.806Z,13.80
2019-04-22T17:08:10.185Z,13.60
2019-04-22T17:10:41.923Z,13.40
2019-04-22T17:13:19.328Z,13.30
2019-04-22T17:15:45.146Z,13.20
2019-04-22T17:18:17.214Z,13.10
2019-04-22T17:20:50.803Z,13.00
2019-04-22T17:23:21.635Z,12.90
2019-04-22T17:25:52.609Z,12.70
2019-04-22T17:28:25.719Z,12.70
2019-04-22T17:30:57.528Z,12.50
2019-04-22T17:33:28.834Z,12.50
2019-04-22T17:36:03.352Z,12.40
2019-04-22T17:38:44.333Z,12.20
2019-04-22T17:41:20.857Z,12.00
2019-04-22T17:44:09.339Z,11.90
2019-04-22T17:46:30.422Z,11.80
2019-04-22T17:49:12.282Z,11.70
2019-04-22T17:51:47.727Z,11.50
2019-04-22T17:54:17.100Z,11.50
2019-04-22T17:56:48.585Z,11.40
2019-04-22T17:59:20.381Z,11.30
2019-04-22T18:01:54.056Z,11.20
2019-04-22T18:04:07.173Z,11.00
2019-04-22T18:07:07.738Z,10.90
2019-04-22T18:09:57.695Z,10.80
2019-04-22T18:12:12.029Z,10.70
2019-04-22T18:17:10.933Z,10.60
2019-04-22T18:19:39.831Z,10.60
2019-04-22T18:22:09.408Z,10.60
2019-04-22T18:24:43.945Z,10.50
2019-04-22T18:27:36.020Z,10.40
2019-04-22T18:29:51.789Z,10.40
2019-04-22T18:36:01.168Z,10.30
2019-04-22T18:38:44.022Z,10.30
2019-04-22T18:41:08.084Z,10.30
2019-04-22T18:43:42.431Z,10.20
2019-04-22T18:46:14.623Z,10.10
2019-04-22T18:48:48.044Z,10.00
2019-04-22T18:51:24.424Z,9.90
2019-04-22T18:54:00.212Z,9.90
2019-04-22T18:56:32.491Z,9.70
2019-04-22T18:58:55.860Z,9.60
2019-04-22T19:01:17.771Z,9.50
2019-04-22T19:04:00.293Z,9.50
2019-04-22T19:09:17.175Z,9.50
2019-04-22T19:12:03.162Z,9.40
2019-04-22T19:14:37.259Z,9.40
2019-04-22T19:17:10.904Z,9.30
2019-04-22T19:19:38.998Z,9.30
2019-04-22T19:21:57.775Z,9.40
2019-04-22T19:24:29.047Z,9.30
2019-04-22T19:27:09.193Z,9.30
2019-04-22T19:29:51.345Z,9.20
2019-04-22T19:32:24.431Z,9.30
2019-04-22T19:34:56.917Z,9.30
2019-04-22T19:37:28.786Z,9.30
2019-04-22T19:40:10.514Z,9.40
2019-04-22T19:42:43.241Z,9.30
2019-04-22T19:45:09.034Z,9.30
2019-04-22T19:47:41.987Z,9.20
2019-04-22T19:50:19.194Z,9.20
2019-04-22T19:52:43.429Z,9.20
2019-04-22T19:55:26.583Z,9.10
2019-04-22T19:57:52.575Z,9.10
2019-04-22T20:00:21.412Z,9.10
2019-04-22T20:03:21.741Z,9.00
2019-04-22T20:05:52.559Z,9.10
2019-04-22T20:08:25.136Z,9.10
2019-04-22T20:10:59.159Z,9.00
2019-04-22T20:13:36.762Z,8.90
2019-04-22T20:15:55.283Z,8.90
2019-04-22T20:18:46.649Z,8.80
2019-04-22T20:21:14.278Z,8.80
2019-04-22T20:23:32.943Z,8.70
2019-04-22T20:26:07.338Z,8.60
2019-04-22T20:28:49.206Z,8.50
2019-04-22T20:31:19.375Z,8.50
2019-04-22T20:34:01.287Z,8.50
2019-04-22T20:36:47.542Z,8.50
2019-04-22T20:38:56.118Z,8.40
2019-04-22T20:41:30.400Z,8.40
2019-04-22T20:44:07.468Z,8.40
2019-04-22T20:46:37.181Z,8.30
2019-04-22T20:49:15.201Z,8.30
2019-04-22T20:51:53.178Z,8.20
2019-04-22T20:54:12.158Z,8.20
2019-04-22T20:56:37.142Z,8.10
2019-04-22T20:59:23.153Z,8.10
2019-04-22T21:01:49.694Z,8.10
2019-04-22T21:04:11.492Z,8.00
2019-04-22T21:06:51.513Z,8.00
2019-04-22T21:09:28.495Z,8.00
2019-04-22T21:11:59.439Z,8.00
2019-04-22T21:14:30.678Z,7.90
2019-04-22T21:17:10.179Z,7.90
2019-04-22T21:19:47.921Z,7.90
2019-04-22T21:22:08.134Z,7.90
2019-04-22T21:24:40.186Z,7.90
2019-04-22T21:27:13.913Z,8.00
2019-04-22T21:29:39.871Z,7.90
2019-04-22T21:32:17.536Z,7.90
2019-04-22T21:34:55.474Z,7.90
2019-04-22T21:37:26.444Z,7.90
2019-04-22T21:39:49.687Z,8.00
2019-04-22T21:42:28.499Z,8.00
2019-04-22T21:44:52.728Z,8.00
2019-04-22T21:47:34.967Z,8.00
2019-04-22T21:50:24.134Z,8.00
2019-04-22T21:52:35.828Z,8.00
2019-04-22T21:55:10.198Z,8.00
2019-04-22T21:58:05.158Z,7.90
2019-04-22T22:00:43.523Z,7.90
2019-04-22T22:03:14.574Z,7.90
2019-04-22T22:05:30.301Z,7.80
2019-04-22T22:08:21.584Z,7.70
2019-04-22T22:10:45.019Z,7.60
2019-04-22T22:13:16.922Z,7.60
2019-04-22T22:15:47.947Z,7.50
2019-04-22T22:18:12.277Z,7.50
2019-04-22T22:21:17.108Z,7.50
2019-04-22T22:25:53.749Z,7.50
2019-04-22T22:28:45.033Z,7.40
2019-04-22T22:31:10.362Z,7.40
2019-04-22T22:33:40.418Z,7.40
2019-04-22T22:36:00.762Z,7.30
2019-04-22T22:38:31.217Z,7.40
2019-04-22T22:40:52.001Z,7.30
2019-04-22T22:43:31.955Z,7.30
2019-04-22T22:46:09.456Z,7.30
2019-04-22T22:48:51.367Z,7.30
2019-04-22T22:51:30.673Z,7.20
2019-04-22T22:53:51.241Z,7.10
2019-04-22T22:56:29.220Z,7.10
2019-04-22T22:58:58.705Z,7.00
2019-04-22T23:01:31.765Z,7.00
2019-04-22T23:04:05.010Z,7.00
2019-04-22T23:06:38.301Z,7.00
2019-04-22T23:09:05.784Z,6.90
2019-04-22T23:11:52.045Z,6.80
2019-04-22T23:14:07.166Z,6.80
2019-04-22T23:16:31.532Z,6.80
2019-04-22T23:19:06.390Z,6.70
2019-04-22T23:21:41.968Z,6.70
2019-04-22T23:24:28.168Z,6.80
2019-04-22T23:27:14.637Z,6.90
2019-04-22T23:29:43.486Z,6.80
2019-04-22T23:32:18.578Z,6.80
2019-04-22T23:34:56.113Z,6.80
2019-04-22T23:37:23.210Z,6.70
2019-04-22T23:40:09.974Z,6.60
2019-04-22T23:42:34.975Z,6.60
2019-04-22T23:45:12.398Z,6.50
2019-04-22T23:47:32.427Z,6.60
2019-04-22T23:50:17.979Z,6.60
2019-04-22T23:52:47.992Z,6.70
2019-04-22T23:55:20.440Z,6.70
2019-04-22T23:57:50.421Z,6.70
